createdAt,value
2022-11-29T00:01:31.662Z,8.27
2022-11-29T00:03:59.236Z,8.32
2022-11-29T00:06:31.782Z,7.80
2022-11-29T00:09:01.306Z,8.48
2022-11-29T00:11:49.494Z,7.95
2022-11-29T00:14:27.829Z,8.73
2022-11-29T00:17:00.497Z,7.95
2022-11-29T00:19:30.069Z,8.45
2022-11-29T00:21:56.975Z,8.10
2022-11-29T00:24:24.540Z,7.70
2022-11-29T00:26:51.893Z,8.32
2022-11-29T00:29:19.096Z,8.57
2022-11-29T00:31:46.124Z,8.55
2022-11-29T00:34:13.357Z,8.98
2022-11-29T00:36:41.038Z,8.35
2022-11-29T00:39:13.512Z,8.15
2022-11-29T00:41:41.180Z,8.27
2022-11-29T00:44:09.325Z,8.05
2022-11-29T00:46:36.597Z,8.25
2022-11-29T00:49:04.560Z,8.05
2022-11-29T00:51:32.123Z,7.95
2022-11-29T00:53:59.608Z,8.10
2022-11-29T00:56:28.217Z,7.75
2022-11-29T00:58:55.416Z,8.18
2022-11-29T01:01:22.490Z,7.70
2022-11-29T01:03:49.617Z,7.53
2022-11-29T01:06:19.213Z,8.10
2022-11-29T01:08:47.892Z,7.47
2022-11-29T01:11:19.036Z,7.60
2022-11-29T01:13:46.785Z,8.40
2022-11-29T01:16:15.527Z,8.38
2022-11-29T01:18:43.358Z,8.68
2022-11-29T01:21:19.439Z,8.55
2022-11-29T01:23:46.708Z,8.32
2022-11-29T01:26:16.975Z,8.20
2022-11-29T01:28:49.598Z,8.65
2022-11-29T01:31:22.754Z,8.10
2022-11-29T01:33:56.423Z,8.82
2022-11-29T01:36:24.255Z,8.10
2022-11-29T01:38:51.703Z,7.45
2022-11-29T01:41:30.938Z,7.78
2022-11-29T01:44:12.655Z,7.40
2022-11-29T01:46:46.514Z,7.43
2022-11-29T01:49:25.130Z,7.53
2022-11-29T01:52:00.086Z,8.40
2022-11-29T01:54:29.160Z,7.47
2022-11-29T01:56:56.220Z,7.00
2022-11-29T01:59:27.761Z,7.43
2022-11-29T02:02:00.322Z,7.93
2022-11-29T02:04:30.161Z,6.80
2022-11-29T02:06:57.126Z,7.20
2022-11-29T02:09:24.010Z,7.57
2022-11-29T02:12:00.016Z,7.63
2022-11-29T02:14:55.918Z,6.60
2022-11-29T02:17:42.463Z,6.50
2022-11-29T02:20:42.685Z,7.43
2022-11-29T02:23:51.688Z,7.45
2022-11-29T02:36:01.813Z,7.13
2022-11-29T02:39:06.314Z,6.75
2022-11-29T02:48:27.224Z,6.22
2022-11-29T02:51:12.144Z,6.65
2022-11-29T02:53:44.858Z,6.68
2022-11-29T02:56:30.700Z,6.47
2022-11-29T02:59:04.370Z,7.22
2022-11-29T03:01:42.765Z,6.20
2022-11-29T03:04:31.939Z,6.07
2022-11-29T03:07:17.857Z,6.50
2022-11-29T03:10:11.105Z,7.30
2022-11-29T03:12:48.252Z,6.68
2022-11-29T03:15:35.473Z,6.07
2022-11-29T03:18:35.027Z,5.80
2022-11-29T03:21:22.304Z,6.57
2022-11-29T03:24:04.857Z,6.38
2022-11-29T03:26:42.044Z,5.57
2022-11-29T03:29:31.211Z,6.60
2022-11-29T03:32:11.664Z,6.28
2022-11-29T03:34:56.931Z,6.97
2022-11-29T03:37:48.290Z,6.43
2022-11-29T03:40:20.142Z,6.78
2022-11-29T03:43:09.047Z,8.02
2022-11-29T03:46:03.237Z,6.95
2022-11-29T03:48:30.378Z,6.90
2022-11-29T03:51:16.400Z,6.45
2022-11-29T03:53:49.589Z,7.28
2022-11-29T03:56:32.173Z,7.20
2022-11-29T03:59:36.265Z,7.03
2022-11-29T04:02:13.157Z,7.15
2022-11-29T04:04:46.610Z,6.53
2022-11-29T04:07:35.576Z,7.57
2022-11-29T04:10:17.863Z,7.53
2022-11-29T04:13:18.472Z,6.70
2022-11-29T04:16:36.454Z,6.22
2022-11-29T04:19:28.505Z,6.35
2022-11-29T04:21:58.481Z,6.65
2022-11-29T04:25:04.015Z,6.95
2022-11-29T04:27:31.364Z,7.50
2022-11-29T04:30:15.846Z,6.72
2022-11-29T04:33:14.308Z,6.75
2022-11-29T04:35:59.384Z,7.63
2022-11-29T04:38:39.329Z,6.95
2022-11-29T04:41:27.457Z,6.47
2022-11-29T04:44:28.639Z,6.90
2022-11-29T04:47:02.446Z,7.03
2022-11-29T04:49:41.023Z,7.00
2022-11-29T04:52:42.077Z,7.22
2022-11-29T04:55:45.664Z,7.22
2022-11-29T04:58:27.146Z,7.47
2022-11-29T05:01:01.726Z,7.37
2022-11-29T05:03:57.405Z,7.32
2022-11-29T05:06:33.871Z,6.88
2022-11-29T05:09:22.314Z,6.90
2022-11-29T05:12:07.402Z,7.38
2022-11-29T05:14:50.470Z,8.18
2022-11-29T05:17:46.859Z,7.53
2022-11-29T05:20:39.295Z,7.28
2022-11-29T05:23:39.831Z,7.10
2022-11-29T05:26:21.393Z,7.03
2022-11-29T05:29:05.477Z,6.95
2022-11-29T05:32:13.021Z,7.00
2022-11-29T05:34:52.798Z,6.80
2022-11-29T05:37:23.336Z,7.75
2022-11-29T05:40:34.927Z,7.65
2022-11-29T05:43:46.234Z,7.68
2022-11-29T05:46:22.290Z,7.03
2022-11-29T05:49:03.624Z,6.47
2022-11-29T05:51:47.155Z,6.85
2022-11-29T05:54:37.357Z,6.97
2022-11-29T05:57:30.116Z,7.50
2022-11-29T05:59:59.165Z,6.13
2022-11-29T06:02:43.930Z,7.00
2022-11-29T06:05:25.078Z,7.18
2022-11-29T06:08:35.434Z,7.93
2022-11-29T06:11:18.744Z,7.35
2022-11-29T06:14:02.884Z,7.50
2022-11-29T06:16:51.282Z,8.02
2022-11-29T06:19:26.966Z,8.48
2022-11-29T06:22:20.912Z,8.70
2022-11-29T06:25:24.480Z,9.02
2022-11-29T06:28:10.448Z,7.78
2022-11-29T06:31:01.414Z,8.02
2022-11-29T06:33:42.877Z,8.45
2022-11-29T06:39:04.919Z,8.25
2022-11-29T06:41:33.594Z,8.57
2022-11-29T06:44:01.118Z,8.55
2022-11-29T06:46:45.695Z,8.48
2022-11-29T06:49:38.739Z,8.13
2022-11-29T06:52:28.774Z,8.65
2022-11-29T06:55:08.241Z,8.02
2022-11-29T06:57:59.950Z,7.72
2022-11-29T07:00:33.587Z,8.25
2022-11-29T07:03:30.137Z,7.93
2022-11-29T07:05:59.034Z,8.52
2022-11-29T07:08:27.493Z,7.97
2022-11-29T07:13:41.004Z,8.85
2022-11-29T07:16:16.066Z,8.05
2022-11-29T07:19:46.343Z,7.60
2022-11-29T07:22:32.151Z,8.13
2022-11-29T07:25:24.044Z,7.57
2022-11-29T07:28:15.373Z,8.63
2022-11-29T07:30:45.096Z,8.45
2022-11-29T07:33:40.383Z,8.48
2022-11-29T07:36:16.833Z,8.07
2022-11-29T07:38:53.013Z,7.85
2022-11-29T07:41:41.235Z,7.47
2022-11-29T07:44:16.948Z,7.22
2022-11-29T07:46:44.221Z,7.53
2022-11-29T07:49:11.687Z,8.60
2022-11-29T07:51:39.576Z,9.05
2022-11-29T07:54:06.689Z,8.57
2022-11-29T07:56:34.051Z,8.90
2022-11-29T07:59:01.567Z,8.85
2022-11-29T08:01:29.831Z,8.25
2022-11-29T08:03:56.850Z,7.88
2022-11-29T08:06:26.560Z,9.10
2022-11-29T08:08:56.747Z,7.22
2022-11-29T08:11:26.371Z,8.05
2022-11-29T08:13:58.176Z,6.93
2022-11-29T08:16:25.409Z,7.43
2022-11-29T08:18:55.401Z,8.77
2022-11-29T08:21:22.950Z,8.25
2022-11-29T08:23:51.346Z,9.07
2022-11-29T08:26:20.016Z,8.13
2022-11-29T08:28:54.916Z,8.90
2022-11-29T08:31:22.528Z,8.20
2022-11-29T08:33:50.077Z,8.32
2022-11-29T08:36:19.668Z,7.70
2022-11-29T08:38:47.705Z,7.40
2022-11-29T08:41:17.130Z,8.00
2022-11-29T08:43:44.806Z,9.13
2022-11-29T08:46:16.922Z,10.32
2022-11-29T08:48:50.176Z,10.25
2022-11-29T08:51:17.762Z,8.35
2022-11-29T08:53:46.522Z,7.80
2022-11-29T08:59:08.920Z,9.15
2022-11-29T09:01:36.344Z,8.95
2022-11-29T09:04:03.669Z,8.85
2022-11-29T09:06:40.963Z,9.50
2022-11-29T09:09:08.496Z,8.77
2022-11-29T09:11:37.716Z,8.93
2022-11-29T09:14:07.815Z,9.23
2022-11-29T09:16:38.847Z,9.30
2022-11-29T09:19:11.371Z,9.05
2022-11-29T09:21:39.854Z,8.10
2022-11-29T09:24:17.765Z,10.55
2022-11-29T09:26:48.343Z,8.90
2022-11-29T09:29:16.744Z,9.57
2022-11-29T09:31:47.407Z,8.25
2022-11-29T09:34:15.308Z,10.13
2022-11-29T09:36:44.276Z,9.93
2022-11-29T09:39:12.580Z,9.30
2022-11-29T09:42:27.370Z,8.63
2022-11-29T09:45:10.937Z,8.90
2022-11-29T09:48:01.224Z,9.60
2022-11-29T09:50:42.969Z,8.90
2022-11-29T09:53:34.347Z,10.00
2022-11-29T09:56:22.105Z,9.25
2022-11-29T09:59:12.004Z,9.13
2022-11-29T10:01:46.148Z,9.63
2022-11-29T10:04:19.763Z,9.98
2022-11-29T10:07:06.473Z,9.43
2022-11-29T10:09:53.996Z,10.50
2022-11-29T10:12:35.412Z,9.95
2022-11-29T10:15:21.202Z,10.13
2022-11-29T10:18:03.319Z,9.88
2022-11-29T10:23:09.757Z,9.75
2022-11-29T10:25:45.258Z,9.18
2022-11-29T10:28:18.692Z,9.52
2022-11-29T10:30:46.814Z,9.95
2022-11-29T10:33:22.594Z,8.98
2022-11-29T10:35:55.721Z,9.20
2022-11-29T10:38:32.056Z,10.02
2022-11-29T10:41:08.653Z,12.07
2022-11-29T10:43:37.471Z,10.80
2022-11-29T10:46:06.238Z,11.30
2022-11-29T10:48:34.778Z,8.73
2022-11-29T10:51:03.733Z,8.95
2022-11-29T10:53:37.838Z,9.60
2022-11-29T10:56:17.565Z,10.23
2022-11-29T10:59:05.228Z,10.35
2022-11-29T11:01:37.470Z,10.00
2022-11-29T11:06:51.537Z,9.95
2022-11-29T11:09:36.537Z,9.40
2022-11-29T11:12:17.750Z,10.40
2022-11-29T11:14:47.230Z,10.20
2022-11-29T11:17:27.331Z,11.82
2022-11-29T11:19:55.966Z,11.32
2022-11-29T11:22:26.364Z,9.90
2022-11-29T11:25:23.942Z,8.73
2022-11-29T11:27:51.635Z,11.07
2022-11-29T11:30:22.762Z,10.18
2022-11-29T11:33:08.806Z,10.82
2022-11-29T11:35:39.201Z,9.00
2022-11-29T11:38:17.152Z,10.18
2022-11-29T11:40:45.208Z,10.60
2022-11-29T11:43:20.302Z,8.82
2022-11-29T11:45:56.285Z,10.45
2022-11-29T11:48:23.840Z,8.70
2022-11-29T11:50:57.300Z,8.32
2022-11-29T11:53:52.660Z,7.80
2022-11-29T11:56:20.767Z,8.63
2022-11-29T11:58:52.467Z,11.32
2022-11-29T12:01:29.167Z,9.38
2022-11-29T12:04:15.805Z,9.15
2022-11-29T12:06:52.435Z,9.23
2022-11-29T12:09:44.126Z,8.70
2022-11-29T12:12:28.870Z,8.90
2022-11-29T12:15:03.140Z,9.13
2022-11-29T12:17:41.885Z,10.68
2022-11-29T12:20:15.367Z,8.70
2022-11-29T12:23:15.647Z,9.75
2022-11-29T12:26:01.462Z,8.38
2022-11-29T12:28:39.214Z,8.70
2022-11-29T12:31:27.465Z,9.93
2022-11-29T12:34:22.925Z,8.30
2022-11-29T12:37:14.658Z,7.63
2022-11-29T12:40:06.193Z,9.30
2022-11-29T12:42:42.151Z,8.63
2022-11-29T12:45:25.429Z,8.93
2022-11-29T12:48:10.451Z,8.98
2022-11-29T12:50:38.030Z,14.35
2022-11-29T12:53:07.592Z,17.33
2022-11-29T12:56:00.443Z,15.35
2022-11-29T12:58:45.994Z,15.48
2022-11-29T13:01:22.178Z,19.58
2022-11-29T13:04:06.745Z,15.48
2022-11-29T13:06:40.719Z,19.02
2022-11-29T13:09:19.942Z,21.42
2022-11-29T13:12:13.125Z,18.40
2022-11-29T13:15:04.026Z,19.00
2022-11-29T13:17:34.082Z,18.27
2022-11-29T13:20:18.804Z,14.88
2022-11-29T13:23:05.961Z,16.77
2022-11-29T13:25:43.231Z,24.90
2022-11-29T13:28:38.497Z,23.77
2022-11-29T13:31:12.800Z,26.95
2022-11-29T13:33:48.941Z,23.00
2022-11-29T13:36:16.961Z,22.95
2022-11-29T13:38:55.542Z,21.95
2022-11-29T13:41:40.567Z,20.65
2022-11-29T13:44:40.123Z,21.30
2022-11-29T13:47:11.947Z,18.65
2022-11-29T13:49:57.749Z,17.15
2022-11-29T13:52:39.826Z,15.82
2022-11-29T13:58:20.717Z,17.35
2022-11-29T14:00:50.002Z,18.75
2022-11-29T14:03:28.557Z,16.17
2022-11-29T14:06:02.022Z,17.65
2022-11-29T14:08:55.147Z,17.40
2022-11-29T14:11:34.661Z,14.95
2022-11-29T14:14:07.188Z,16.38
2022-11-29T14:16:46.781Z,16.50
2022-11-29T14:19:42.020Z,15.00
2022-11-29T14:22:21.083Z,13.98
2022-11-29T14:25:11.792Z,12.88
2022-11-29T14:27:59.639Z,13.20
2022-11-29T14:31:02.258Z,15.20
2022-11-29T14:34:08.636Z,13.95
2022-11-29T14:36:55.550Z,12.85
2022-11-29T14:39:38.523Z,14.95
2022-11-29T14:42:14.552Z,16.77
2022-11-29T14:44:51.415Z,15.32
2022-11-29T14:47:35.653Z,15.05
2022-11-29T14:50:10.225Z,16.40
2022-11-29T14:52:51.894Z,17.45
2022-11-29T14:55:24.609Z,15.88
2022-11-29T14:58:01.761Z,17.30
2022-11-29T15:00:40.939Z,16.55
2022-11-29T15:03:11.121Z,16.17
2022-11-29T15:05:45.434Z,14.35
2022-11-29T15:08:27.150Z,15.27
2022-11-29T15:11:12.089Z,15.85
2022-11-29T15:14:06.315Z,16.15
2022-11-29T15:17:09.736Z,15.65
2022-11-29T15:20:07.448Z,16.52
2022-11-29T15:22:45.176Z,14.80
2022-11-29T15:25:15.993Z,17.65
2022-11-29T15:28:03.327Z,16.77
2022-11-29T15:30:41.960Z,17.63
2022-11-29T15:33:21.072Z,16.00
2022-11-29T15:35:53.992Z,16.30
2022-11-29T15:38:23.053Z,16.20
2022-11-29T15:40:53.525Z,16.30
2022-11-29T15:43:26.395Z,14.88
2022-11-29T15:45:58.573Z,14.70
2022-11-29T15:48:31.269Z,13.77
2022-11-29T15:53:38.628Z,12.98
2022-11-29T15:56:16.817Z,12.40
2022-11-29T15:58:47.956Z,13.52
2022-11-29T16:01:20.953Z,13.38
2022-11-29T16:03:52.500Z,14.43
2022-11-29T16:06:43.189Z,14.00
2022-11-29T16:09:15.815Z,16.20
2022-11-29T16:11:43.728Z,14.32
2022-11-29T16:14:25.016Z,13.52
2022-11-29T16:16:57.280Z,13.00
2022-11-29T16:19:31.204Z,15.52
2022-11-29T16:22:09.818Z,14.63
2022-11-29T16:25:01.212Z,14.25
2022-11-29T16:27:32.333Z,17.90
2022-11-29T16:30:01.799Z,15.95
2022-11-29T16:32:34.662Z,15.27
2022-11-29T16:35:21.693Z,13.40
2022-11-29T16:37:51.107Z,13.55
2022-11-29T16:40:37.828Z,16.05
2022-11-29T16:43:07.425Z,13.60
2022-11-29T16:45:35.607Z,12.38
2022-11-29T16:48:14.492Z,15.05
2022-11-29T16:50:41.698Z,15.13
2022-11-29T16:53:38.032Z,16.65
2022-11-29T16:56:09.364Z,15.75
2022-11-29T16:59:16.679Z,15.10
2022-11-29T17:01:28.937Z,16.23
2022-11-29T17:04:00.757Z,16.10
2022-11-29T17:06:29.622Z,15.60
2022-11-29T17:08:58.813Z,17.73
2022-11-29T17:11:26.929Z,15.63
2022-11-29T17:13:54.620Z,16.33
2022-11-29T17:16:23.819Z,18.63
2022-11-29T17:18:52.884Z,16.83
2022-11-29T17:21:25.207Z,16.63
2022-11-29T17:26:22.417Z,17.00
2022-11-29T17:28:51.848Z,17.02
2022-11-29T17:31:21.121Z,14.13
2022-11-29T17:33:48.648Z,16.92
2022-11-29T17:36:18.404Z,15.07
2022-11-29T17:38:46.463Z,17.00
2022-11-29T17:41:20.282Z,15.85
2022-11-29T17:43:47.761Z,14.85
2022-11-29T17:46:23.901Z,16.58
2022-11-29T17:48:52.336Z,16.80
2022-11-29T17:54:11.989Z,20.42
2022-11-29T17:56:39.011Z,24.10
2022-11-29T17:59:06.291Z,23.17
2022-11-29T18:01:37.379Z,23.33
2022-11-29T18:04:06.475Z,25.48
2022-11-29T18:06:42.241Z,27.10
2022-11-29T18:09:11.568Z,29.48
2022-11-29T18:11:47.612Z,30.50
2022-11-29T18:14:24.291Z,28.52
2022-11-29T18:16:52.363Z,27.92
2022-11-29T18:19:22.667Z,26.42
2022-11-29T18:21:50.437Z,29.10
2022-11-29T18:24:18.564Z,29.83
2022-11-29T18:26:46.119Z,29.05
2022-11-29T18:29:13.423Z,31.00
2022-11-29T18:31:44.358Z,31.92
2022-11-29T18:34:13.606Z,31.35
2022-11-29T18:36:46.854Z,33.13
2022-11-29T18:39:16.088Z,30.10
2022-11-29T18:41:45.222Z,30.55
2022-11-29T18:44:14.639Z,31.13
2022-11-29T18:46:43.798Z,31.52
2022-11-29T18:49:14.585Z,30.30
2022-11-29T18:51:46.853Z,30.77
2022-11-29T18:56:45.744Z,31.13
2022-11-29T18:59:17.035Z,29.63
2022-11-29T19:01:46.325Z,29.30
2022-11-29T19:04:18.772Z,30.50
2022-11-29T19:06:46.340Z,27.80
2022-11-29T19:09:18.092Z,28.85
2022-11-29T19:11:45.544Z,28.23
2022-11-29T19:14:13.499Z,27.20
2022-11-29T19:16:45.716Z,29.08
2022-11-29T19:21:41.531Z,27.85
2022-11-29T19:24:14.244Z,30.27
2022-11-29T19:26:44.567Z,28.27
2022-11-29T19:29:13.849Z,25.95
2022-11-29T19:31:41.977Z,29.90
2022-11-29T19:34:09.403Z,28.58
2022-11-29T19:36:44.823Z,35.50
2022-11-29T19:39:15.597Z,33.42
2022-11-29T19:41:45.430Z,34.45
2022-11-29T19:44:12.893Z,35.78
2022-11-29T19:46:42.808Z,32.47
2022-11-29T19:49:10.545Z,35.20
2022-11-29T19:51:38.049Z,34.33
2022-11-29T19:54:07.706Z,30.45
2022-11-29T19:56:35.548Z,34.28
2022-11-29T19:59:02.984Z,30.65
2022-11-29T20:01:39.678Z,32.03
2022-11-29T20:04:11.770Z,31.80
2022-11-29T20:06:42.010Z,29.98
2022-11-29T20:09:10.251Z,35.15
2022-11-29T20:11:37.845Z,32.95
2022-11-29T20:14:07.351Z,30.77
2022-11-29T20:16:34.911Z,27.40
2022-11-29T20:19:02.274Z,29.48
2022-11-29T20:21:32.436Z,30.33
2022-11-29T20:24:06.174Z,29.48
2022-11-29T20:26:35.330Z,26.58
2022-11-29T20:29:04.013Z,24.80
2022-11-29T20:31:37.642Z,24.40
2022-11-29T20:34:11.744Z,25.65
2022-11-29T20:37:07.816Z,22.20
2022-11-29T20:39:52.984Z,25.00
2022-11-29T20:42:28.988Z,25.63
2022-11-29T20:45:03.233Z,26.75
2022-11-29T20:47:47.082Z,28.50
2022-11-29T20:50:24.749Z,31.35
2022-11-29T20:53:07.280Z,25.92
2022-11-29T20:55:42.480Z,24.92
2022-11-29T20:58:13.534Z,24.15
2022-11-29T21:00:40.694Z,23.48
2022-11-29T21:03:08.962Z,23.45
2022-11-29T21:05:38.102Z,22.42
2022-11-29T21:08:05.345Z,21.55
2022-11-29T21:10:36.940Z,23.17
2022-11-29T21:13:04.224Z,21.13
2022-11-29T21:15:31.550Z,21.88
2022-11-29T21:18:01.646Z,23.38
2022-11-29T21:20:28.881Z,22.63
2022-11-29T21:23:17.796Z,20.85
2022-11-29T21:26:07.798Z,21.15
2022-11-29T21:28:40.589Z,21.35
2022-11-29T21:31:13.070Z,23.77
2022-11-29T21:33:40.739Z,23.05
2022-11-29T21:36:12.990Z,22.90
2022-11-29T21:41:27.330Z,23.70
2022-11-29T21:44:06.384Z,24.80
2022-11-29T21:46:36.020Z,25.90
2022-11-29T21:49:06.913Z,23.63
2022-11-29T21:51:34.095Z,24.25
2022-11-29T21:54:01.858Z,24.17
2022-11-29T21:56:29.127Z,24.65
2022-11-29T21:58:56.614Z,24.67
2022-11-29T22:01:27.253Z,22.63
2022-11-29T22:03:54.999Z,24.05
2022-11-29T22:06:24.523Z,26.13
2022-11-29T22:08:52.150Z,25.05
2022-11-29T22:11:41.974Z,23.75
2022-11-29T22:14:15.500Z,25.95
2022-11-29T22:17:05.602Z,25.20
2022-11-29T22:19:36.330Z,25.98
2022-11-29T22:22:09.721Z,25.30
2022-11-29T22:24:37.786Z,26.02
2022-11-29T22:27:05.145Z,25.90
2022-11-29T22:29:32.203Z,23.63
2022-11-29T22:32:01.833Z,27.17
2022-11-29T22:34:29.533Z,31.42
2022-11-29T22:37:00.246Z,30.80
2022-11-29T22:39:30.247Z,31.15
2022-11-29T22:42:03.933Z,31.13
2022-11-29T22:44:32.464Z,30.77
2022-11-29T22:46:59.631Z,33.08
2022-11-29T22:49:26.942Z,30.20
2022-11-29T22:54:40.926Z,33.72
2022-11-29T22:57:12.088Z,31.65
2022-11-29T22:59:41.119Z,31.30
2022-11-29T23:02:43.145Z,31.77
2022-11-29T23:05:11.719Z,30.80
2022-11-29T23:07:42.255Z,30.73
2022-11-29T23:10:26.100Z,30.85
2022-11-29T23:12:59.029Z,30.45
2022-11-29T23:18:12.629Z,33.63
2022-11-29T23:20:45.103Z,32.97
2022-11-29T23:23:24.473Z,32.40
2022-11-29T23:26:18.751Z,31.55
2022-11-29T23:28:48.817Z,32.80
2022-11-29T23:31:17.228Z,33.42
2022-11-29T23:33:45.042Z,29.55
2022-11-29T23:36:14.881Z,24.55
2022-11-29T23:38:43.714Z,29.98
2022-11-29T23:41:12.683Z,32.88
2022-11-29T23:43:42.016Z,34.65
2022-11-29T23:46:18.623Z,33.03
2022-11-29T23:48:46.208Z,31.90
2022-11-29T23:51:13.902Z,31.70
2022-11-29T23:53:42.034Z,30.00
2022-11-29T23:56:16.091Z,30.40
2022-11-29T23:58:43.992Z,31.23
